Time;durP1;ratioP1;P1;durP2;ratioP2;P2;SDS_P1;SDS_P2;PMS_P1;PMS_P2;Temp;Humidity;BMP_temperature;BMP_pressure;BME280_temperature;BME280_humidity;BME280_pressure;Samples;Min_cycle;Max_cycle;Signal;HPM_P1;HPM_P2
2023/01/22 00:01:59;;;;;;;10.00;8.67;;;;;;;-0.30;100.00;97184.00;5116856;28;20272;-59
2023/01/22 00:04:25;;;;;;;10.13;9.07;;;;;;;-0.28;100.00;97182.16;5116723;28;20203;-60
2023/01/22 00:06:52;;;;;;;10.37;8.97;;;;;;;-0.30;100.00;97176.19;5118257;28;20303;-60
2023/01/22 00:09:21;;;;;;;11.07;9.10;;;;;;;-0.27;100.00;97176.06;5119589;28;20205;-59
2023/01/22 00:11:47;;;;;;;10.30;9.30;;;;;;;-0.31;100.00;97174.50;5118676;28;20286;-60
2023/01/22 00:14:15;;;;;;;10.97;9.33;;;;;;;-0.33;100.00;97181.53;5113880;28;20509;-59
2023/01/22 00:16:42;;;;;;;9.97;8.80;;;;;;;-0.29;100.00;97177.88;5112363;28;20215;-59
2023/01/22 00:19:09;;;;;;;9.77;8.77;;;;;;;-0.31;100.00;97178.84;5122517;28;20214;-59
2023/01/22 00:21:35;;;;;;;10.97;9.57;;;;;;;-0.34;100.00;97173.78;5123492;28;20207;-58
2023/01/22 00:24:02;;;;;;;11.23;9.73;;;;;;;-0.38;100.00;97173.06;5120131;28;20783;-59
2023/01/22 00:26:28;;;;;;;9.87;8.87;;;;;;;-0.35;100.00;97172.94;5121092;28;20223;-58
2023/01/22 00:28:55;;;;;;;10.60;9.50;;;;;;;-0.39;100.00;97171.34;5113006;28;20555;-59
2023/01/22 00:31:23;;;;;;;10.43;9.37;;;;;;;-0.32;100.00;97172.78;5112630;28;20199;-60
2023/01/22 00:33:49;;;;;;;11.07;9.83;;;;;;;-0.35;100.00;97172.94;5112540;28;20240;-59
2023/01/22 00:36:17;;;;;;;10.53;9.43;;;;;;;-0.57;100.00;97170.38;5112794;27;20205;-59
2023/01/22 00:38:44;;;;;;;9.47;8.27;;;;;;;-0.48;100.00;97169.16;5111725;28;20681;-59
2023/01/22 00:41:12;;;;;;;10.93;8.93;;;;;;;-0.40;100.00;97174.03;5111706;28;20198;-59
2023/01/22 00:43:39;;;;;;;9.43;8.40;;;;;;;-0.39;100.00;97166.16;5112536;28;20230;-59
2023/01/22 00:46:06;;;;;;;9.80;8.43;;;;;;;-0.43;100.00;97172.44;5111459;27;20293;-60
2023/01/22 00:48:34;;;;;;;11.20;9.07;;;;;;;-0.34;100.00;97165.97;5112638;28;20234;-60
2023/01/22 00:51:01;;;;;;;11.47;9.33;;;;;;;-0.30;100.00;97175.34;5112080;28;20222;-60
2023/01/22 00:53:27;;;;;;;11.57;9.13;;;;;;;-0.26;100.00;97167.38;5112586;28;20204;-59
2023/01/22 00:55:55;;;;;;;11.07;8.70;;;;;;;-0.23;100.00;97161.19;5111104;28;20207;-60
2023/01/22 00:58:22;;;;;;;10.27;9.10;;;;;;;-0.36;100.00;97170.41;5112278;28;20201;-60
2023/01/22 01:00:48;;;;;;;9.70;8.70;;;;;;;-0.35;100.00;97174.69;5111930;28;20202;-60
2023/01/22 01:03:29;;;;;;;9.33;8.33;;;;;;;-0.39;100.00;97175.75;5112025;28;20230;-60
2023/01/22 01:05:58;;;;;;;9.97;8.73;;;;;;;-0.41;100.00;97167.16;5112544;28;20217;-60
2023/01/22 01:08:26;;;;;;;9.50;8.53;;;;;;;-0.39;100.00;97171.34;5112123;28;20219;-60
2023/01/22 01:10:56;;;;;;;12.20;8.20;;;;;;;-0.41;100.00;97173.19;5111118;28;20199;-60
2023/01/22 01:13:25;;;;;;;9.33;8.33;;;;;;;-0.43;100.00;97172.44;5110887;28;20651;-58
2023/01/22 01:15:59;;;;;;;8.83;7.80;;;;;;;-0.46;100.00;97166.50;5111434;28;20521;-60
2023/01/22 01:18:25;;;;;;;8.57;7.67;;;;;;;-0.38;100.00;97167.88;5111287;28;20198;-60
2023/01/22 01:20:54;;;;;;;8.93;8.03;;;;;;;-0.39;100.00;97170.53;5111640;28;20199;-59
2023/01/22 01:23:22;;;;;;;8.93;8.03;;;;;;;-0.42;100.00;97166.28;5111032;28;20669;-59
2023/01/22 01:25:48;;;;;;;9.83;7.87;;;;;;;-0.53;100.00;97169.34;5110918;28;20212;-60
2023/01/22 01:28:15;;;;;;;10.03;8.10;;;;;;;-0.47;100.00;97167.41;5109872;28;20233;-59
2023/01/22 01:30:41;;;;;;;9.77;8.27;;;;;;;-0.46;100.00;97164.72;5111636;28;20224;-60
2023/01/22 01:33:07;;;;;;;9.03;8.07;;;;;;;-0.38;100.00;97165.25;5110877;28;20886;-59
2023/01/22 01:35:34;;;;;;;10.93;8.70;;;;;;;-0.38;100.00;97167.88;5111867;27;21356;-59
2023/01/22 01:38:00;;;;;;;9.53;8.53;;;;;;;-0.35;100.00;97162.53;5111362;28;20208;-58
2023/01/22 01:40:28;;;;;;;9.73;8.60;;;;;;;-0.37;100.00;97158.31;5111209;28;20206;-59
2023/01/22 01:42:55;;;;;;;9.77;8.50;;;;;;;-0.31;100.00;97158.06;5111047;28;20314;-60
2023/01/22 01:45:26;;;;;;;9.23;8.23;;;;;;;-0.34;100.00;97156.44;5110862;28;20207;-59
2023/01/22 01:47:56;;;;;;;8.60;7.70;;;;;;;-0.35;100.00;97154.75;5111133;28;20514;-59
2023/01/22 01:50:23;;;;;;;9.83;8.47;;;;;;;-0.33;100.00;97154.69;5111333;28;20226;-59
2023/01/22 01:52:49;;;;;;;10.63;9.20;;;;;;;-0.34;100.00;97147.78;5111149;28;20200;-60
2023/01/22 01:55:17;;;;;;;8.97;8.07;;;;;;;-0.34;100.00;97159.03;5110890;28;20207;-59
2023/01/22 01:57:45;;;;;;;9.53;8.53;;;;;;;-0.31;100.00;97142.47;5109934;28;20203;-60
2023/01/22 02:00:13;;;;;;;9.20;8.30;;;;;;;-0.33;100.00;97155.53;5110969;28;20203;-59
2023/01/22 02:02:40;;;;;;;9.33;8.27;;;;;;;-0.31;100.00;97143.31;5110004;28;20244;-60
2023/01/22 02:05:08;;;;;;;10.27;8.70;;;;;;;-0.33;100.00;97145.16;5111112;28;20209;-59
2023/01/22 02:07:35;;;;;;;9.73;8.73;;;;;;;-0.38;100.00;97146.22;5110141;28;20210;-59
2023/01/22 02:10:05;;;;;;;10.23;8.90;;;;;;;-0.30;100.00;97145.00;5117676;28;20215;-58
2023/01/22 02:12:32;;;;;;;9.73;8.77;;;;;;;-0.37;100.00;97140.97;5121891;28;20194;-59
2023/01/22 02:15:01;;;;;;;9.53;8.53;;;;;;;-0.33;100.00;97142.53;5121372;28;20256;-59
2023/01/22 02:17:27;;;;;;;10.43;8.60;;;;;;;-0.34;100.00;97132.19;5114113;28;20208;-60
2023/01/22 02:19:54;;;;;;;10.17;9.00;;;;;;;-0.36;100.00;97139.22;5111080;28;20216;-60
2023/01/22 02:22:23;;;;;;;10.10;9.10;;;;;;;-0.37;100.00;97137.53;5111575;28;20243;-58
2023/01/22 02:24:50;;;;;;;10.43;9.20;;;;;;;-0.37;100.00;97133.19;5110991;28;20205;-59
2023/01/22 02:27:16;;;;;;;10.43;8.50;;;;;;;-0.37;100.00;97138.38;5111535;28;20646;-58
2023/01/22 02:29:43;;;;;;;11.13;8.93;;;;;;;-0.36;100.00;97134.03;5111573;28;20558;-59
2023/01/22 02:32:10;;;;;;;10.33;9.33;;;;;;;-0.36;100.00;97134.88;5110737;28;20214;-58
2023/01/22 02:34:36;;;;;;;10.40;9.13;;;;;;;-0.36;100.00;97129.69;5110085;28;20205;-59
2023/01/22 02:37:03;;;;;;;10.97;9.70;;;;;;;-0.39;100.00;97123.78;5110296;28;20216;-58
2023/01/22 02:39:30;;;;;;;10.60;9.30;;;;;;;-0.39;100.00;97124.59;5110179;28;20199;-58
2023/01/22 02:41:57;;;;;;;11.10;9.13;;;;;;;-0.39;100.00;97127.19;5113676;28;20204;-59
2023/01/22 02:44:24;;;;;;;9.80;8.80;;;;;;;-0.33;100.00;97124.34;5114887;28;20536;-59
2023/01/22 02:46:50;;;;;;;10.17;9.10;;;;;;;-0.31;100.00;97119.94;5115578;28;20211;-59
2023/01/22 02:49:17;;;;;;;9.67;8.57;;;;;;;-0.34;100.00;97124.41;5115046;28;20213;-59
2023/01/22 02:51:43;;;;;;;9.53;8.50;;;;;;;-0.32;100.00;97118.22;5113562;28;20203;-58
2023/01/22 02:54:09;;;;;;;9.47;8.50;;;;;;;-0.34;100.00;97117.47;5113783;28;20203;-59
2023/01/22 02:56:37;;;;;;;11.33;9.43;;;;;;;-0.35;100.00;97112.31;5114612;28;20206;-58
2023/01/22 02:59:04;;;;;;;9.87;8.87;;;;;;;-0.32;100.00;97112.22;5113833;28;20208;-58
2023/01/22 03:01:31;;;;;;;9.60;8.47;;;;;;;-0.27;100.00;97112.84;5114085;28;20567;-59
2023/01/22 03:04:00;;;;;;;10.73;9.23;;;;;;;-0.36;100.00;97108.06;5113500;28;20226;-58
2023/01/22 03:06:28;;;;;;;11.47;9.53;;;;;;;-0.37;100.00;97114.16;5114442;28;20298;-58
2023/01/22 03:08:57;;;;;;;9.87;8.87;;;;;;;-0.36;100.00;97108.91;5113081;28;20298;-59
2023/01/22 03:11:24;;;;;;;11.57;9.50;;;;;;;-0.27;100.00;97107.66;5114274;28;20628;-58
2023/01/22 03:22:05;;;;;;;9.93;8.93;;;;;;;-0.13;100.00;97095.75;5113949;28;20203;-60
2023/01/22 03:24:31;;;;;;;9.97;8.73;;;;;;;-0.14;100.00;97099.25;5113466;28;20236;-58
2023/01/22 03:26:58;;;;;;;10.17;9.07;;;;;;;-0.21;100.00;97103.03;5113331;28;20534;-59
2023/01/22 03:29:25;;;;;;;10.10;8.73;;;;;;;-0.21;100.00;97096.97;5113448;28;20210;-58
2023/01/22 03:31:52;;;;;;;10.33;9.00;;;;;;;-0.30;100.00;97103.44;5113598;28;20203;-58
2023/01/22 03:34:20;;;;;;;9.87;8.87;;;;;;;-0.25;100.00;97106.66;5113226;28;20634;-58
2023/01/22 03:36:47;;;;;;;10.80;9.47;;;;;;;-0.23;100.00;97101.41;5113908;28;20207;-58
2023/01/22 03:39:14;;;;;;;10.17;9.03;;;;;;;-0.32;100.00;97099.22;5113671;28;20251;-58
2023/01/22 03:41:41;;;;;;;9.97;8.63;;;;;;;-0.28;100.00;97098.16;5113186;28;20205;-58
2023/01/22 03:44:10;;;;;;;9.67;8.50;;;;;;;-0.26;100.00;97101.53;5112931;28;20685;-59
2023/01/22 03:46:39;;;;;;;9.73;8.37;;;;;;;-0.30;100.00;97102.59;5114366;27;20223;-59
2023/01/22 03:49:06;;;;;;;10.70;9.33;;;;;;;-0.23;100.00;97098.81;5113614;28;20207;-58
2023/01/22 03:51:32;;;;;;;10.60;9.00;;;;;;;-0.23;100.00;97104.84;5113435;28;20212;-59
2023/01/22 03:53:59;;;;;;;11.30;9.87;;;;;;;-0.24;100.00;97097.97;5113297;28;20223;-58
2023/01/22 03:56:26;;;;;;;9.80;8.60;;;;;;;-0.21;100.00;97108.22;5114341;28;20222;-58
2023/01/22 03:58:53;;;;;;;10.33;9.23;;;;;;;-0.24;100.00;97110.97;5112955;28;20210;-58
2023/01/22 04:01:21;;;;;;;10.43;9.43;;;;;;;-0.28;100.00;97105.94;5113567;28;20223;-58
2023/01/22 04:03:49;;;;;;;10.73;9.63;;;;;;;-0.21;100.00;97108.22;5113708;28;20223;-58
2023/01/22 04:06:16;;;;;;;11.63;9.63;;;;;;;-0.26;100.00;97107.59;5113795;28;20205;-57
2023/01/22 04:08:44;;;;;;;11.67;9.17;;;;;;;-0.22;100.00;97113.50;5113523;28;20202;-58
2023/01/22 04:11:11;;;;;;;10.33;9.23;;;;;;;-0.19;100.00;97116.81;5112712;28;20542;-58
2023/01/22 04:13:38;;;;;;;9.87;8.90;;;;;;;-0.22;100.00;97116.09;5112928;28;20224;-58
2023/01/22 04:16:06;;;;;;;10.33;9.33;;;;;;;-0.22;100.00;97118.69;5112698;28;20200;-59
2023/01/22 04:18:33;;;;;;;10.43;8.97;;;;;;;-0.22;100.00;97122.16;5113245;28;20193;-59
2023/01/22 04:21:00;;;;;;;11.13;9.60;;;;;;;-0.19;100.00;97119.41;5112783;28;20203;-59
2023/01/22 04:23:27;;;;;;;10.00;8.90;;;;;;;-0.26;100.00;97119.75;5112826;28;20222;-60
2023/01/22 04:25:53;;;;;;;9.93;8.50;;;;;;;-0.22;100.00;97126.50;5112241;28;20206;-60
2023/01/22 04:28:20;;;;;;;10.73;9.63;;;;;;;-0.21;100.00;97128.16;5113591;28;20203;-59
2023/01/22 04:30:48;;;;;;;10.43;9.03;;;;;;;-0.19;100.00;97132.41;5112364;28;20239;-59
2023/01/22 04:33:15;;;;;;;10.83;9.73;;;;;;;-0.24;100.00;97129.16;5111973;28;20204;-59
2023/01/22 04:35:41;;;;;;;10.87;9.20;;;;;;;-0.27;100.00;97136.22;5112091;27;20201;-59
2023/01/22 04:38:12;;;;;;;10.83;9.73;;;;;;;-0.30;100.00;97134.63;5113942;28;20208;-58
2023/01/22 04:40:38;;;;;;;10.83;9.33;;;;;;;-0.28;100.00;97137.97;5119076;28;20195;-58
2023/01/22 04:43:06;;;;;;;10.33;9.10;;;;;;;-0.31;100.00;97137.25;5124028;28;20674;-59
2023/01/22 04:45:33;;;;;;;9.57;8.47;;;;;;;-0.31;100.00;97138.13;5119903;28;20289;-57
2023/01/22 04:48:00;;;;;;;9.63;8.63;;;;;;;-0.29;100.00;97136.31;5114639;28;20453;-58
2023/01/22 04:50:27;;;;;;;11.00;9.30;;;;;;;-0.29;100.00;97136.31;5112832;28;20211;-58
2023/01/22 04:52:55;;;;;;;10.43;9.37;;;;;;;-0.26;100.00;97145.72;5112973;28;20206;-58
2023/01/22 04:55:23;;;;;;;10.60;9.07;;;;;;;-0.27;100.00;97134.47;5111754;28;20222;-58
2023/01/22 04:57:50;;;;;;;10.83;8.77;;;;;;;-0.17;100.00;97135.78;5112396;28;20205;-58
2023/01/22 05:00:18;;;;;;;11.03;8.90;;;;;;;-0.25;100.00;97140.44;5111297;28;20211;-57
2023/01/22 05:02:44;;;;;;;10.87;9.40;;;;;;;-0.22;100.00;97131.69;5111328;28;20235;-58
2023/01/22 05:05:11;;;;;;;9.53;8.43;;;;;;;-0.23;100.00;97143.84;5110593;28;20231;-58
2023/01/22 05:07:38;;;;;;;12.07;9.37;;;;;;;-0.24;100.00;97149.09;5112399;28;20216;-60
2023/01/22 05:10:05;;;;;;;11.63;9.57;;;;;;;-0.28;100.00;97143.19;5112096;28;20218;-59
2023/01/22 05:12:33;;;;;;;10.57;9.07;;;;;;;-0.30;100.00;97145.00;5112344;28;20217;-58
2023/01/22 05:15:00;;;;;;;10.50;8.27;;;;;;;-0.21;100.00;97147.19;5111495;28;20216;-59
2023/01/22 05:17:26;;;;;;;10.60;9.40;;;;;;;-0.22;100.00;97142.09;5111846;28;20627;-58
2023/01/22 05:19:53;;;;;;;11.07;9.07;;;;;;;-0.26;100.00;97143.97;5111411;28;20523;-59
2023/01/22 05:22:19;;;;;;;11.07;9.87;;;;;;;-0.21;100.00;97143.75;5111846;28;20204;-59
2023/01/22 05:24:46;;;;;;;9.70;8.70;;;;;;;-0.26;100.00;97150.91;5111849;28;20250;-59
2023/01/22 05:27:12;;;;;;;10.70;9.60;;;;;;;-0.26;100.00;97149.16;5112211;28;20199;-60
2023/01/22 05:29:40;;;;;;;10.37;9.27;;;;;;;-0.22;100.00;97160.28;5111245;28;20216;-59
2023/01/22 05:32:06;;;;;;;10.90;9.53;;;;;;;-0.24;100.00;97155.13;5111973;28;20212;-59
2023/01/22 05:34:33;;;;;;;10.27;9.17;;;;;;;-0.21;100.00;97154.16;5111816;28;20200;-61
2023/01/22 05:36:59;;;;;;;10.63;9.47;;;;;;;-0.20;100.00;97154.09;5112573;28;20213;-60
2023/01/22 05:39:26;;;;;;;10.30;9.20;;;;;;;-0.22;100.00;97157.69;5111298;28;20211;-59
2023/01/22 05:41:52;;;;;;;10.70;9.60;;;;;;;-0.16;100.00;97162.63;5113363;28;20199;-59
2023/01/22 05:44:19;;;;;;;12.00;10.27;;;;;;;-0.14;100.00;97164.22;5112868;28;20246;-59
2023/01/22 05:46:46;;;;;;;9.93;8.93;;;;;;;-0.14;100.00;97160.78;5113595;28;20222;-59
2023/01/22 05:49:13;;;;;;;10.93;9.40;;;;;;;-0.15;100.00;97165.16;5113011;28;20215;-58
2023/01/22 05:51:39;;;;;;;10.43;9.43;;;;;;;-0.17;100.00;97166.97;5114755;28;20200;-58
2023/01/22 05:54:06;;;;;;;10.70;9.20;;;;;;;-0.15;100.00;97167.75;5113431;28;20212;-60
2023/01/22 05:56:32;;;;;;;10.77;9.67;;;;;;;-0.13;100.00;97163.31;5114127;28;20197;-59
2023/01/22 05:58:59;;;;;;;10.87;9.77;;;;;;;-0.05;100.00;97161.25;5115207;28;20227;-59
2023/01/22 06:01:26;;;;;;;10.83;9.70;;;;;;;-0.02;100.00;97166.31;5126815;28;20238;-57
2023/01/22 06:03:54;;;;;;;10.60;9.53;;;;;;;-0.09;100.00;97167.50;5130409;28;20222;-59
2023/01/22 06:06:20;;;;;;;11.40;10.23;;;;;;;-0.15;100.00;97178.16;5131612;28;20222;-58
2023/01/22 06:08:47;;;;;;;10.73;9.03;;;;;;;-0.23;100.00;97175.03;5130453;28;20211;-58
2023/01/22 06:11:16;;;;;;;10.83;9.70;;;;;;;-0.22;100.00;97175.88;5111012;28;20204;-59
2023/01/22 06:13:42;;;;;;;10.67;9.57;;;;;;;-0.33;100.00;97175.47;5110770;28;20221;-58
2023/01/22 06:16:09;;;;;;;10.63;9.07;;;;;;;-0.27;100.00;97185.59;5115532;27;20194;-59
2023/01/22 06:18:36;;;;;;;9.90;8.87;;;;;;;-0.24;100.00;97188.91;5115771;27;20220;-58
2023/01/22 06:21:07;;;;;;;10.87;9.23;;;;;;;-0.26;100.00;97180.34;5114402;28;20202;-58
2023/01/22 06:23:34;;;;;;;11.20;10.00;;;;;;;-0.25;100.00;97189.81;5114782;28;20201;-59
2023/01/22 06:26:02;;;;;;;9.80;8.80;;;;;;;-0.17;100.00;97187.75;5113600;28;20210;-59
2023/01/22 06:28:29;;;;;;;10.23;9.23;;;;;;;-0.21;100.00;97191.38;5115029;28;20210;-58
2023/01/22 06:30:57;;;;;;;10.50;9.00;;;;;;;-0.26;100.00;97192.50;5114935;28;20211;-58
2023/01/22 06:33:23;;;;;;;10.67;9.47;;;;;;;-0.23;100.00;97187.16;5116128;28;20202;-59
2023/01/22 06:35:53;;;;;;;11.03;9.50;;;;;;;-0.24;100.00;97191.53;5115351;27;20560;-59
2023/01/22 06:38:21;;;;;;;11.27;9.70;;;;;;;-0.21;100.00;97190.53;5115025;28;20191;-58
2023/01/22 06:40:51;;;;;;;10.57;9.40;;;;;;;-0.22;100.00;97200.13;5113879;28;20831;-58
2023/01/22 06:43:19;;;;;;;11.00;9.67;;;;;;;-0.17;100.00;97198.16;5114838;28;20202;-59
2023/01/22 06:45:45;;;;;;;10.90;9.70;;;;;;;-0.18;100.00;97206.03;5114745;28;20232;-59
2023/01/22 06:48:12;;;;;;;12.57;9.97;;;;;;;-0.13;100.00;97202.31;5114899;28;20235;-59
2023/01/22 06:50:38;;;;;;;11.80;10.27;;;;;;;-0.19;100.00;97207.78;5114551;28;20208;-59
2023/01/22 06:53:05;;;;;;;10.37;9.27;;;;;;;-0.12;100.00;97211.81;5114687;28;20209;-58
2023/01/22 06:55:32;;;;;;;12.20;10.53;;;;;;;-0.18;100.00;97212.03;5113834;28;20202;-58
2023/01/22 06:57:59;;;;;;;10.97;9.77;;;;;;;-0.17;100.00;97205.94;5114785;28;20207;-59
2023/01/22 07:00:25;;;;;;;11.60;10.40;;;;;;;-0.20;100.00;97206.09;5113824;28;20209;-58
2023/01/22 07:02:53;;;;;;;11.13;10.03;;;;;;;-0.15;100.00;97214.53;5114062;28;20236;-58
2023/01/22 07:05:20;;;;;;;12.37;10.30;;;;;;;-0.13;100.00;97214.47;5114196;28;20226;-59
2023/01/22 07:07:47;;;;;;;11.83;10.23;;;;;;;-0.18;100.00;97214.66;5114746;28;20204;-58
2023/01/22 07:10:14;;;;;;;10.77;9.67;;;;;;;-0.15;100.00;97221.50;5126263;28;20557;-59
2023/01/22 07:12:42;;;;;;;11.83;9.90;;;;;;;-0.10;100.00;97225.56;5132746;28;20202;-58
2023/01/22 07:15:09;;;;;;;11.03;9.83;;;;;;;-0.14;100.00;97224.00;5130515;28;20275;-58
2023/01/22 07:17:36;;;;;;;10.33;9.33;;;;;;;-0.13;100.00;97227.47;5114891;28;20203;-57
2023/01/22 07:20:03;;;;;;;10.70;9.60;;;;;;;-0.07;100.00;97220.25;5114663;28;20307;-59
2023/01/22 07:22:31;;;;;;;11.53;10.33;;;;;;;-0.13;100.00;97223.09;5114620;28;20211;-59
2023/01/22 07:24:57;;;;;;;10.97;9.73;;;;;;;-0.07;100.00;97225.44;5113693;28;20610;-58
2023/01/22 07:27:24;;;;;;;11.17;9.50;;;;;;;-0.01;100.00;97224.34;5113556;28;20212;-59
2023/01/22 07:29:52;;;;;;;10.30;9.30;;;;;;;-0.12;100.00;97224.81;5113947;28;20243;-58
2023/01/22 07:32:18;;;;;;;11.67;10.17;;;;;;;-0.14;100.00;97224.00;5114572;28;20200;-60
2023/01/22 07:34:44;;;;;;;11.13;9.63;;;;;;;-0.22;100.00;97226.09;5113921;28;20202;-60
2023/01/22 07:37:11;;;;;;;11.20;10.00;;;;;;;-0.18;100.00;97229.41;5114036;28;20455;-59
2023/01/22 07:39:37;;;;;;;11.97;9.80;;;;;;;-0.14;100.00;97231.81;5113568;28;20639;-59
2023/01/22 07:42:04;;;;;;;11.57;10.37;;;;;;;-0.14;100.00;97233.56;5113883;28;20549;-58
2023/01/22 07:44:30;;;;;;;10.73;9.63;;;;;;;-0.13;100.00;97228.31;5113809;28;20224;-59
2023/01/22 07:46:58;;;;;;;12.00;10.37;;;;;;;-0.05;100.00;97239.25;5113818;27;20222;-59
2023/01/22 07:49:25;;;;;;;11.73;10.30;;;;;;;-0.07;100.00;97241.03;5113793;28;20211;-59
2023/01/22 07:51:52;;;;;;;11.67;10.37;;;;;;;-0.05;100.00;97241.84;5114244;28;20208;-59
2023/01/22 07:54:19;;;;;;;11.57;10.10;;;;;;;0.05;100.00;97238.84;5114028;28;20208;-57
2023/01/22 07:56:45;;;;;;;11.43;10.23;;;;;;;0.02;100.00;97238.97;5114578;28;20230;-58
2023/01/22 07:59:12;;;;;;;12.00;10.80;;;;;;;-0.04;100.00;97235.72;5114714;28;20214;-58
2023/01/22 08:01:38;;;;;;;11.63;10.23;;;;;;;0.00;100.00;97237.28;5114614;28;20238;-59
2023/01/22 08:04:06;;;;;;;12.93;11.53;;;;;;;0.02;100.00;97234.63;5114597;28;20299;-58
2023/01/22 08:06:33;;;;;;;11.27;10.13;;;;;;;0.07;100.00;97242.25;5114647;28;20571;-59
2023/01/22 08:08:59;;;;;;;11.90;10.70;;;;;;;0.10;100.00;97247.31;5113138;28;20230;-59
2023/01/22 08:11:27;;;;;;;12.27;10.53;;;;;;;0.07;100.00;97248.28;5113338;28;20222;-57
2023/01/22 08:13:54;;;;;;;12.97;10.67;;;;;;;0.10;100.00;97249.91;5113234;28;20780;-58
2023/01/22 08:16:20;;;;;;;12.07;10.03;;;;;;;0.08;100.00;97243.91;5113511;28;20208;-59
2023/01/22 08:18:47;;;;;;;11.60;10.47;;;;;;;0.15;100.00;97245.34;5113584;28;20202;-59
2023/01/22 08:21:15;;;;;;;11.87;10.57;;;;;;;0.15;100.00;97250.53;5113548;28;20204;-59
2023/01/22 08:23:41;;;;;;;12.60;10.27;;;;;;;0.19;100.00;97247.75;5113221;28;20534;-59
2023/01/22 08:26:08;;;;;;;13.27;11.67;;;;;;;0.20;100.00;97249.44;5112070;28;20228;-59
2023/01/22 08:28:34;;;;;;;13.60;12.20;;;;;;;0.09;100.00;97245.59;5113386;28;20219;-58
2023/01/22 08:31:02;;;;;;;14.73;12.00;;;;;;;0.09;100.00;97248.22;5112820;28;20208;-57
2023/01/22 08:33:32;;;;;;;12.50;11.20;;;;;;;0.03;100.00;97253.66;5113146;28;20234;-58
2023/01/22 08:35:58;;;;;;;12.07;10.77;;;;;;;0.04;100.00;97252.78;5112386;28;20636;-58
2023/01/22 08:38:26;;;;;;;12.40;11.10;;;;;;;0.12;100.00;97261.06;5112218;28;20206;-58
2023/01/22 08:40:53;;;;;;;14.83;11.23;;;;;;;0.19;100.00;97259.91;5111927;28;20316;-58
2023/01/22 08:43:20;;;;;;;13.93;11.90;;;;;;;0.19;100.00;97252.94;5113134;28;20207;-58
2023/01/22 08:45:48;;;;;;;12.70;11.37;;;;;;;0.23;100.00;97253.66;5112314;27;20229;-58
2023/01/22 08:48:17;;;;;;;13.37;11.27;;;;;;;0.25;100.00;97251.88;5112196;28;20208;-59
2023/01/22 08:50:43;;;;;;;13.93;11.83;;;;;;;0.30;100.00;97255.09;5111280;28;20202;-58
2023/01/22 08:53:10;;;;;;;12.23;11.03;;;;;;;0.31;100.00;97262.00;5112811;28;20207;-58
2023/01/22 08:55:38;;;;;;;13.57;10.93;;;;;;;0.32;100.00;97274.09;5112271;28;20218;-58
2023/01/22 08:58:06;;;;;;;12.47;11.17;;;;;;;0.28;100.00;97262.13;5112519;28;20509;-59
2023/01/22 09:00:32;;;;;;;12.93;11.27;;;;;;;0.31;100.00;97265.44;5111002;28;20200;-58
2023/01/22 09:02:59;;;;;;;12.50;11.07;;;;;;;0.35;100.00;97271.38;5112803;28;20208;-58
2023/01/22 09:05:26;;;;;;;12.20;11.00;;;;;;;0.39;100.00;97259.91;5112546;28;20227;-58
2023/01/22 09:07:52;;;;;;;12.90;11.30;;;;;;;0.31;100.00;97262.84;5114221;28;20207;-58
2023/01/22 09:10:19;;;;;;;12.10;10.87;;;;;;;0.39;100.00;97267.72;5115185;28;20200;-58
2023/01/22 09:12:52;;;;;;;12.90;11.53;;;;;;;0.41;100.00;97264.13;5119921;28;20204;-57
2023/01/22 09:15:18;;;;;;;13.00;10.77;;;;;;;0.44;100.00;97261.41;5122589;28;20216;-59
2023/01/22 09:17:45;;;;;;;11.80;10.53;;;;;;;0.42;100.00;97270.19;5117718;28;20204;-58
2023/01/22 09:20:11;;;;;;;12.37;11.07;;;;;;;0.35;100.00;97273.97;5115333;28;20315;-59
2023/01/22 09:22:38;;;;;;;13.03;11.30;;;;;;;0.42;100.00;97276.25;5115036;28;20223;-58
2023/01/22 09:25:05;;;;;;;15.63;11.67;;;;;;;0.38;100.00;97284.22;5111094;28;20525;-58
2023/01/22 09:27:31;;;;;;;13.13;11.60;;;;;;;0.38;100.00;97273.84;5112088;28;20201;-57
2023/01/22 09:29:59;;;;;;;12.53;11.23;;;;;;;0.53;100.00;97267.97;5111623;28;20204;-57
2023/01/22 09:32:26;;;;;;;12.47;11.13;;;;;;;0.56;100.00;97262.63;5111536;28;20199;-59
2023/01/22 09:34:52;;;;;;;12.93;11.00;;;;;;;0.66;100.00;97263.06;5112092;28;20210;-59
2023/01/22 09:37:19;;;;;;;12.70;11.13;;;;;;;0.61;100.00;97272.81;5110847;28;20216;-59
2023/01/22 09:39:48;;;;;;;12.53;11.10;;;;;;;0.55;100.00;97270.50;5124577;28;20868;-59
2023/01/22 09:42:18;;;;;;;12.67;11.27;;;;;;;0.50;100.00;97274.13;5122865;28;20294;-58
2023/01/22 09:44:46;;;;;;;12.77;11.40;;;;;;;0.53;100.00;97278.38;5114673;28;20543;-58
2023/01/22 09:47:16;;;;;;;13.37;11.63;;;;;;;0.45;100.00;97273.50;5113242;28;20196;-58
2023/01/22 09:49:51;;;;;;;15.20;12.23;;;;;;;0.43;100.00;97277.06;5112352;28;20681;-60
2023/01/22 09:52:17;;;;;;;13.67;12.13;;;;;;;0.50;100.00;97275.88;5111922;28;20196;-60
2023/01/22 09:54:48;;;;;;;13.17;11.77;;;;;;;0.60;100.00;97282.41;5110518;28;20204;-63
2023/01/22 09:57:15;;;;;;;13.97;12.17;;;;;;;0.59;100.00;97282.47;5111539;28;20207;-58
2023/01/22 09:59:45;;;;;;;13.07;11.67;;;;;;;0.64;100.00;97278.72;5111679;28;20219;-56
2023/01/22 10:02:21;;;;;;;12.90;11.60;;;;;;;0.68;100.00;97276.84;5110509;28;20786;-58
2023/01/22 10:04:51;;;;;;;12.40;11.07;;;;;;;0.71;100.00;97282.75;5111354;28;20211;-58
2023/01/22 10:07:23;;;;;;;13.37;11.37;;;;;;;0.72;100.00;97288.81;5110546;28;20242;-58
2023/01/22 10:09:52;;;;;;;12.13;10.73;;;;;;;0.78;100.00;97283.34;5111291;28;20192;-57
2023/01/22 10:12:19;;;;;;;13.67;11.37;;;;;;;0.74;100.00;97281.78;5111219;28;20196;-58
2023/01/22 10:14:45;;;;;;;12.97;11.30;;;;;;;0.79;100.00;97278.06;5109641;28;20204;-57
2023/01/22 10:17:18;;;;;;;13.53;12.10;;;;;;;0.78;100.00;97276.38;5109960;28;20212;-58
2023/01/22 10:19:47;;;;;;;13.33;11.93;;;;;;;0.84;100.00;97283.91;5110685;28;20212;-58
2023/01/22 10:22:19;;;;;;;13.17;11.67;;;;;;;0.81;100.00;97281.47;5109379;28;20219;-58
2023/01/22 10:24:45;;;;;;;13.77;11.57;;;;;;;0.80;100.00;97271.94;5109230;28;20749;-58
2023/01/22 10:27:15;;;;;;;14.13;12.63;;;;;;;0.94;100.00;97287.81;5111147;28;20208;-57
2023/01/22 10:29:43;;;;;;;14.33;11.70;;;;;;;0.97;100.00;97290.25;5110963;28;20209;-58
2023/01/22 10:32:20;;;;;;;14.70;11.93;;;;;;;1.00;100.00;97282.31;5110733;28;20246;-58
2023/01/22 10:34:58;;;;;;;11.90;10.53;;;;;;;1.08;100.00;97281.13;5111099;28;20205;-58
2023/01/22 10:37:25;;;;;;;12.33;11.03;;;;;;;1.08;99.29;97283.72;5110686;28;20200;-58
2023/01/22 10:39:56;;;;;;;12.90;10.90;;;;;;;0.94;97.83;97286.94;5110702;28;20216;-59
2023/01/22 10:42:24;;;;;;;12.53;11.23;;;;;;;0.97;98.30;97289.41;5111189;28;20204;-58
2023/01/22 10:44:55;;;;;;;11.73;10.53;;;;;;;1.07;96.59;97287.22;5111548;28;20205;-58
2023/01/22 10:47:26;;;;;;;11.27;10.07;;;;;;;1.10;97.35;97289.72;5110872;28;20789;-60
2023/01/22 10:50:02;;;;;;;12.67;10.47;;;;;;;1.12;95.97;97290.47;5111260;28;20232;-58
2023/01/22 10:52:34;;;;;;;11.23;10.03;;;;;;;1.15;97.56;97283.38;5091896;28;20216;-58
2023/01/22 10:55:00;;;;;;;11.30;10.07;;;;;;;1.16;96.06;97286.81;5109643;28;20196;-58
2023/01/22 10:57:30;;;;;;;12.53;10.27;;;;;;;1.25;98.08;97286.41;5110400;28;20508;-58
2023/01/22 11:00:20;;;;;;;11.40;10.20;;;;;;;1.27;97.16;97282.81;5111236;28;20207;-58
2023/01/22 11:02:49;;;;;;;11.13;9.97;;;;;;;1.30;96.85;97293.09;5113526;28;20224;-58
2023/01/22 11:05:18;;;;;;;11.70;10.50;;;;;;;1.27;95.12;97288.03;5114438;28;20568;-58
2023/01/22 11:07:45;;;;;;;10.20;9.17;;;;;;;1.32;94.20;97293.00;5115115;28;20266;-56
2023/01/22 11:10:17;;;;;;;11.53;10.33;;;;;;;1.31;94.13;97294.75;5113529;28;20201;-57
2023/01/22 11:12:47;;;;;;;12.60;11.07;;;;;;;1.37;95.72;97293.66;5115010;28;20189;-58
2023/01/22 11:15:22;;;;;;;13.47;11.03;;;;;;;1.42;97.49;97291.66;5114129;28;20525;-57
2023/01/22 11:17:51;;;;;;;11.63;10.43;;;;;;;1.36;94.91;97286.75;5114070;28;20571;-57
2023/01/22 11:20:21;;;;;;;11.00;9.90;;;;;;;1.41;95.32;97290.00;5114190;28;20204;-57
2023/01/22 11:22:59;;;;;;;11.23;10.03;;;;;;;1.43;94.49;97288.16;5114169;28;20216;-58
2023/01/22 11:25:26;;;;;;;11.53;10.33;;;;;;;1.39;93.90;97284.84;5112871;28;20205;-57
2023/01/22 11:28:04;;;;;;;10.27;9.27;;;;;;;1.40;95.39;97277.88;5114171;28;20644;-58
2023/01/22 11:30:46;;;;;;;11.50;10.30;;;;;;;1.37;95.24;97281.47;5115149;28;20202;-59